Time;durP1;ratioP1;P1;durP2;ratioP2;P2;SDS_P1;SDS_P2;PMS_P1;PMS_P2;Temp;Humidity;BMP_temperature;BMP_pressure;BME280_temperature;BME280_humidity;BME280_pressure;Samples;Min_cycle;Max_cycle;Signal;HPM_P1;HPM_P2
2021/08/24 00:01:15;;;;;;;7.03;6.20;;;;;;;15.83;83.62;100031.94;257117;1104;117592;-68
2021/08/24 00:06:19;;;;;;;5.72;5.16;;;;;;;15.89;83.55;100040.84;256343;1104;115792;-68
2021/08/24 00:11:22;;;;;;;5.43;5.03;;;;;;;15.90;83.32;100033.58;254354;1100;116019;-69
2021/08/24 00:16:25;;;;;;;10.95;6.50;;;;;;;15.86;83.29;100033.30;254352;1104;116906;-68
2021/08/24 00:21:29;;;;;;;6.70;6.00;;;;;;;15.87;83.43;100040.29;254354;1104;116967;-68
2021/08/24 00:26:32;;;;;;;5.20;4.78;;;;;;;15.85;83.23;100047.00;255164;1104;117825;-66
2021/08/24 00:31:35;;;;;;;6.10;5.60;;;;;;;15.85;83.22;100049.69;254694;1098;115364;-66
2021/08/24 00:36:38;;;;;;;6.05;5.18;;;;;;;15.83;83.23;100045.38;254891;1099;115773;-66
2021/08/24 00:41:42;;;;;;;6.23;5.70;;;;;;;15.80;83.37;100047.78;254284;1100;115666;-67
2021/08/24 00:46:48;;;;;;;7.05;6.30;;;;;;;15.74;83.20;100052.31;254742;1104;136813;-67
2021/08/24 00:52:07;;;;;;;6.85;5.68;;;;;;;15.75;83.11;100053.93;254415;1104;114978;-70
2021/08/24 00:57:17;;;;;;;6.28;5.68;;;;;;;15.76;83.27;100060.92;254313;1104;116053;-66
2021/08/24 01:02:22;;;;;;;4.60;4.20;;;;;;;15.75;83.01;100055.81;254175;1099;115069;-66
2021/08/24 01:07:41;;;;;;;9.23;4.53;;;;;;;15.72;82.65;100067.89;254143;1100;115018;-67
2021/08/24 01:13:00;;;;;;;9.85;5.40;;;;;;;15.68;82.97;100077.53;254366;1104;114757;-67
2021/08/24 01:18:16;;;;;;;6.63;5.75;;;;;;;15.63;82.60;100082.06;254416;1104;115473;-68
2021/08/24 01:23:53;;;;;;;7.68;6.23;;;;;;;15.63;82.66;100087.44;254102;1103;115041;-67
2021/08/24 01:29:35;;;;;;;6.33;5.73;;;;;;;15.59;82.66;100087.17;254019;1104;115666;-71
2021/08/24 01:35:10;;;;;;;4.35;3.98;;;;;;;15.51;82.42;100084.94;254384;1104;115486;-69
2021/08/24 01:40:39;;;;;;;10.15;5.18;;;;;;;15.47;82.83;100091.88;256313;1104;116872;-67
2021/08/24 01:45:47;;;;;;;6.00;5.50;;;;;;;15.47;82.78;100083.83;254456;1104;116240;-66
2021/08/24 01:50:58;;;;;;;9.43;4.90;;;;;;;15.46;82.20;100090.27;255544;1104;115007;-67
2021/08/24 01:56:12;;;;;;;4.63;4.23;;;;;;;15.43;82.25;100094.27;254613;1099;118841;-69
2021/08/24 02:01:20;;;;;;;4.08;3.70;;;;;;;15.41;82.67;100109.03;254103;1104;115022;-70
2021/08/24 02:06:32;;;;;;;6.17;5.57;;;;;;;15.37;82.22;100111.41;255489;1098;116612;-69
2021/08/24 02:11:36;;;;;;;7.77;4.83;;;;;;;15.35;82.20;100113.55;257095;1104;116318;-67
2021/08/24 02:16:40;;;;;;;5.55;4.98;;;;;;;15.35;82.57;100110.05;256051;1104;114977;-68
2021/08/24 02:21:54;;;;;;;5.90;5.38;;;;;;;15.33;82.34;100121.05;255586;1104;115282;-66
2021/08/24 02:26:59;;;;;;;5.63;5.13;;;;;;;15.28;82.14;100120.22;254267;1099;115582;-69
2021/08/24 02:32:08;;;;;;;5.28;4.45;;;;;;;15.29;82.55;100127.99;254912;1104;115350;-69
2021/08/24 02:37:35;;;;;;;4.78;4.38;;;;;;;15.29;82.25;100119.13;254451;1104;114790;-70
2021/08/24 02:42:58;;;;;;;6.67;4.23;;;;;;;15.21;82.03;100117.74;254498;1104;115663;-68
2021/08/24 02:48:08;;;;;;;5.20;4.70;;;;;;;15.18;82.04;100130.87;254783;1104;116015;-70
2021/08/24 02:53:14;;;;;;;7.40;5.68;;;;;;;15.19;82.46;100133.30;254637;1104;114785;-68
2021/08/24 02:58:18;;;;;;;5.10;4.60;;;;;;;15.21;82.28;100138.41;254229;1104;115024;-70
2021/08/24 03:03:20;;;;;;;6.15;4.95;;;;;;;15.18;82.13;100142.42;254413;1104;115402;-70
2021/08/24 03:08:24;;;;;;;5.75;5.20;;;;;;;15.16;82.37;100145.36;254255;1099;115371;-70
2021/08/24 03:13:33;;;;;;;5.30;4.33;;;;;;;15.19;82.54;100141.35;255378;1104;115267;-70
2021/08/24 03:19:00;;;;;;;4.90;4.53;;;;;;;15.15;82.34;100142.92;254481;1104;116013;-67
2021/08/24 03:24:07;;;;;;;5.98;4.68;;;;;;;15.10;81.97;100148.24;254804;1104;115448;-67
2021/08/24 03:29:16;;;;;;;6.10;4.58;;;;;;;15.06;82.41;100141.76;254944;1104;115672;-68
2021/08/24 03:34:19;;;;;;;5.08;4.63;;;;;;;15.07;82.20;100154.92;255399;1104;116234;-68
2021/08/24 03:39:22;;;;;;;4.30;3.93;;;;;;;15.07;82.39;100151.44;254368;1104;117208;-67
2021/08/24 03:44:24;;;;;;;7.03;5.00;;;;;;;15.05;82.28;100159.73;254832;1104;115776;-67
2021/08/24 03:49:28;;;;;;;7.27;4.40;;;;;;;15.03;82.03;100164.55;255801;1103;115870;-67
2021/08/24 03:54:30;;;;;;;4.68;4.28;;;;;;;15.04;82.44;100168.86;254410;1104;115391;-67
2021/08/24 03:59:33;;;;;;;5.50;4.95;;;;;;;15.04;82.33;100176.10;254285;1104;115710;-67
2021/08/24 04:04:36;;;;;;;5.08;4.55;;;;;;;15.02;82.49;100165.61;257073;1103;116911;-68
2021/08/24 04:09:39;;;;;;;5.00;4.55;;;;;;;15.03;82.34;100169.92;255383;1104;116463;-66
2021/08/24 04:14:42;;;;;;;4.50;4.10;;;;;;;15.04;82.23;100179.59;254257;1104;115759;-67
2021/08/24 04:19:45;;;;;;;5.10;4.60;;;;;;;15.03;82.46;100188.71;254118;1104;115948;-68
2021/08/24 04:24:47;;;;;;;7.03;5.07;;;;;;;15.04;82.56;100195.70;254426;1103;115627;-67
2021/08/24 04:29:50;;;;;;;6.00;5.33;;;;;;;15.04;82.04;100209.13;255079;1103;117147;-67
2021/08/24 04:34:55;;;;;;;7.25;4.73;;;;;;;15.03;82.20;100204.82;254398;1104;116586;-67
2021/08/24 04:39:59;;;;;;;8.18;5.40;;;;;;;14.99;82.12;100197.52;254268;1104;116742;-66
2021/08/24 04:45:04;;;;;;;6.58;5.28;;;;;;;14.94;81.88;100206.36;254115;1100;118381;-66
2021/08/24 04:50:08;;;;;;;10.55;5.35;;;;;;;14.95;82.46;100209.85;254333;1103;116806;-67
2021/08/24 04:55:12;;;;;;;6.95;5.25;;;;;;;14.94;82.32;100205.55;254510;1103;116099;-67
2021/08/24 05:00:16;;;;;;;7.50;5.35;;;;;;;14.91;82.13;100214.91;254208;1104;116223;-67
2021/08/24 05:05:19;;;;;;;6.58;5.35;;;;;;;14.90;82.28;100218.66;254831;1104;116622;-67
2021/08/24 05:10:23;;;;;;;4.95;4.45;;;;;;;14.89;82.21;100219.72;254600;1104;115976;-67
2021/08/24 05:15:27;;;;;;;6.73;4.48;;;;;;;14.90;81.96;100234.77;254323;1104;115885;-68
2021/08/24 05:20:30;;;;;;;6.73;4.85;;;;;;;14.88;82.37;100234.20;254421;1104;116389;-67
2021/08/24 05:25:33;;;;;;;5.90;4.38;;;;;;;14.85;82.24;100232.02;254250;1100;117119;-67
2021/08/24 05:30:36;;;;;;;5.03;4.63;;;;;;;14.83;82.05;100234.94;254236;1104;116018;-67
2021/08/24 05:35:39;;;;;;;4.70;4.30;;;;;;;14.82;82.58;100238.69;254213;1104;115909;-69
2021/08/24 05:40:42;;;;;;;4.47;3.50;;;;;;;14.81;82.14;100247.80;255427;1104;115900;-70
2021/08/24 05:45:45;;;;;;;6.53;3.85;;;;;;;14.80;82.04;100251.55;255845;1104;116530;-69
2021/08/24 05:50:49;;;;;;;4.23;3.38;;;;;;;14.80;82.18;100253.41;254267;1104;117088;-68
2021/08/24 05:55:53;;;;;;;4.05;3.73;;;;;;;14.81;81.65;100258.53;254211;1103;116134;-69
2021/08/24 06:00:55;;;;;;;3.20;2.93;;;;;;;14.78;81.59;100255.53;254315;1103;116527;-69
2021/08/24 06:05:59;;;;;;;4.35;3.05;;;;;;;14.73;81.68;100271.56;254256;1104;116108;-69
2021/08/24 06:11:03;;;;;;;5.83;2.60;;;;;;;14.69;81.93;100276.62;255008;1104;116173;-67
2021/08/24 06:16:07;;;;;;;7.60;3.60;;;;;;;14.67;81.56;100283.32;257107;1104;115352;-67
2021/08/24 06:21:11;;;;;;;6.05;2.43;;;;;;;14.64;81.21;100295.36;257216;1104;116086;-66
2021/08/24 06:26:16;;;;;;;4.47;2.53;;;;;;;14.60;80.43;100307.64;257285;1104;116996;-66
2021/08/24 06:31:25;;;;;;;3.90;3.07;;;;;;;14.59;81.51;100308.70;254384;1104;116110;-66
2021/08/24 06:36:30;;;;;;;6.98;3.15;;;;;;;14.52;81.02;100312.61;254349;1104;116292;-65
2021/08/24 06:41:34;;;;;;;2.75;2.53;;;;;;;14.46;81.11;100320.58;254141;1104;116048;-68
2021/08/24 06:46:39;;;;;;;3.73;3.43;;;;;;;14.42;81.21;100323.98;255297;1099;116701;-69
2021/08/24 06:51:46;;;;;;;3.18;2.25;;;;;;;14.43;81.72;100320.25;254420;1104;116487;-69
2021/08/24 06:56:49;;;;;;;3.53;3.00;;;;;;;14.43;80.76;100328.30;254255;1104;115792;-72
2021/08/24 07:01:53;;;;;;;6.28;2.88;;;;;;;14.40;81.05;100321.52;254303;1103;116506;-68
2021/08/24 07:06:57;;;;;;;3.88;2.85;;;;;;;14.40;81.31;100326.88;254356;1102;115952;-68
2021/08/24 07:12:01;;;;;;;2.93;2.60;;;;;;;14.38;81.13;100336.23;254677;1103;116547;-68
2021/08/24 07:17:05;;;;;;;5.05;2.45;;;;;;;14.41;81.35;100331.22;253940;1103;115922;-68
2021/08/24 07:22:09;;;;;;;5.08;2.60;;;;;;;14.51;81.30;100327.08;254253;1104;115375;-68
2021/08/24 07:27:12;;;;;;;2.38;2.00;;;;;;;14.60;81.09;100336.34;254192;1096;116452;-66
2021/08/24 07:32:15;;;;;;;3.07;2.77;;;;;;;14.65;81.23;100337.23;254581;1102;115769;-65
2021/08/24 07:37:18;;;;;;;4.48;2.58;;;;;;;14.71;81.36;100346.14;254290;1102;115123;-66
2021/08/24 07:42:22;;;;;;;5.33;2.67;;;;;;;14.77;81.19;100347.84;255665;1103;115392;-67
2021/08/24 07:47:25;;;;;;;3.40;2.53;;;;;;;14.74;80.83;100348.33;254490;1103;115716;-68
2021/08/24 07:52:29;;;;;;;6.80;2.53;;;;;;;14.77;80.73;100364.76;254219;1103;116732;-65
2021/08/24 07:57:32;;;;;;;3.00;2.70;;;;;;;14.76;80.90;100365.81;255597;1101;116502;-66
2021/08/24 08:02:35;;;;;;;7.30;2.40;;;;;;;14.87;80.92;100372.16;256190;1104;115878;-67
2021/08/24 08:07:43;;;;;;;4.75;2.58;;;;;;;14.93;80.27;100379.22;254111;1103;115069;-66
2021/08/24 08:12:48;;;;;;;3.37;2.27;;;;;;;15.02;80.35;100379.59;255153;1104;114973;-67
2021/08/24 08:17:52;;;;;;;3.28;2.53;;;;;;;15.17;80.25;100379.80;257021;1103;116779;-67
2021/08/24 08:22:55;;;;;;;5.93;2.65;;;;;;;15.25;79.95;100382.06;257108;1103;117619;-67
2021/08/24 08:27:59;;;;;;;6.68;2.28;;;;;;;15.46;79.99;100396.55;255923;1101;115506;-67
2021/08/24 08:33:05;;;;;;;6.65;2.58;;;;;;;15.70;79.68;100395.23;254419;1096;115913;-66
2021/08/24 08:38:09;;;;;;;4.08;2.53;;;;;;;15.91;79.28;100401.63;255655;1103;115050;-66
2021/08/24 08:43:12;;;;;;;7.08;2.20;;;;;;;15.95;79.02;100400.06;255277;1097;116229;-67
2021/08/24 08:48:34;;;;;;;8.13;2.80;;;;;;;16.10;78.76;100399.41;254366;1103;115224;-65
2021/08/24 08:54:10;;;;;;;4.20;2.08;;;;;;;16.24;78.90;100403.28;254818;1103;115432;-66
2021/08/24 08:59:20;;;;;;;3.75;2.23;;;;;;;16.38;78.27;100415.27;255049;1104;115312;-65
2021/08/24 09:04:37;;;;;;;2.50;1.70;;;;;;;16.55;77.27;100415.12;254679;1104;115863;-65
2021/08/24 09:09:41;;;;;;;2.00;1.65;;;;;;;16.64;77.32;100413.61;254194;1104;115641;-64
2021/08/24 09:14:52;;;;;;;2.60;1.90;;;;;;;16.75;77.05;100422.58;254557;1101;115147;-67
2021/08/24 09:20:24;;;;;;;2.83;2.25;;;;;;;16.89;76.97;100431.00;254394;1102;115202;-66
2021/08/24 09:25:59;;;;;;;3.60;2.13;;;;;;;16.94;75.92;100431.86;255574;1101;115868;-67
2021/08/24 09:31:06;;;;;;;2.33;1.75;;;;;;;16.92;75.88;100430.48;255191;1101;114919;-67
2021/08/24 09:36:09;;;;;;;;;;;;;;;16.98;75.62;100437.53;255568;1101;115776;-67
2021/08/24 09:41:20;;;;;;;3.65;2.15;;;;;;;17.00;74.99;100436.20;255765;1103;104082;-67
2021/08/24 09:46:35;;;;;;;8.40;2.48;;;;;;;17.04;74.66;100434.63;254589;1096;115949;-67
2021/08/24 09:51:46;;;;;;;5.05;2.85;;;;;;;17.05;74.06;100441.63;255001;1101;115722;-66
2021/08/24 09:56:53;;;;;;;3.45;1.68;;;;;;;17.11;73.95;100454.06;254260;1101;115651;-67
2021/08/24 10:01:57;;;;;;;2.87;1.90;;;;;;;17.23;73.59;100453.03;254343;1096;115019;-65
2021/08/24 10:07:06;;;;;;;4.17;1.97;;;;;;;17.26;73.06;100447.13;255921;1097;115615;-67
2021/08/24 10:12:14;;;;;;;2.65;1.80;;;;;;;17.33;72.62;100450.41;257285;1101;115335;-66
2021/08/24 10:17:29;;;;;;;0.93;0.93;;;;;;;17.37;71.86;100460.41;257327;1101;115484;-66
2021/08/24 10:22:37;;;;;;;3.63;2.13;;;;;;;17.31;71.19;100457.94;257278;1101;115231;-71
2021/08/24 10:28:05;;;;;;;1.53;1.40;;;;;;;17.39;70.73;100454.75;254871;1102;115237;-66
2021/08/24 10:33:48;;;;;;;1.00;0.93;;;;;;;17.53;70.74;100461.27;255522;1103;115513;-66
2021/08/24 10:39:20;;;;;;;1.95;1.08;;;;;;;17.55;69.67;100464.52;254310;1101;115391;-69
2021/08/24 10:44:27;;;;;;;1.33;1.23;;;;;;;17.48;68.79;100477.42;255694;1101;115239;-66
2021/08/24 10:49:31;;;;;;;1.44;1.34;;;;;;;17.53;69.66;100484.72;255725;1101;115763;-66
2021/08/24 10:54:46;;;;;;;2.15;1.15;;;;;;;17.56;68.57;100485.02;254928;1101;115998;-66
2021/08/24 11:00:23;;;;;;;2.08;1.18;;;;;;;17.63;68.77;100490.98;254835;1101;114985;-66
2021/08/24 11:05:48;;;;;;;3.10;0.70;;;;;;;17.67;68.42;100497.51;254028;1104;115727;-65
2021/08/24 11:11:01;;;;;;;2.90;1.15;;;;;;;17.69;68.13;100498.06;255054;1102;115284;-67
2021/08/24 11:16:07;;;;;;;2.85;1.25;;;;;;;17.76;67.77;100500.49;254206;1103;115734;-67
2021/08/24 11:21:57;;;;;;;4.00;1.40;;;;;;;17.73;67.13;100501.05;254862;1096;115729;-67
2021/08/24 11:27:13;;;;;;;1.70;1.10;;;;;;;17.81;67.71;100501.33;255049;1103;114999;-66
2021/08/24 11:32:29;;;;;;;2.23;1.40;;;;;;;17.83;67.25;100509.97;255186;1101;116372;-67
2021/08/24 11:38:06;;;;;;;1.20;1.00;;;;;;;17.82;66.13;100515.63;254455;1101;115855;-66
2021/08/24 11:43:21;;;;;;;1.80;1.33;;;;;;;17.83;66.26;100518.06;254688;1103;114900;-66
2021/08/24 11:48:35;;;;;;;1.05;1.00;;;;;;;17.88;65.87;100516.46;254705;1101;115144;-67
2021/08/24 11:53:48;;;;;;;;;;;;;;;17.97;65.97;100514.89;255393;1102;115109;-67
2021/08/24 11:58:53;;;;;;;1.35;1.00;;;;;;;18.01;65.66;100518.68;256912;1101;103072;-66
2021/08/24 12:04:02;;;;;;;3.10;1.70;;;;;;;18.13;65.28;100527.34;256310;1101;117722;-65
2021/08/24 12:09:08;;;;;;;2.83;1.80;;;;;;;18.10;65.16;100528.67;254957;1102;115617;-68
2021/08/24 12:14:18;;;;;;;8.90;1.98;;;;;;;18.01;65.09;100532.17;256039;1101;115973;-68
2021/08/24 12:19:25;;;;;;;4.27;1.13;;;;;;;18.01;64.87;100532.98;254655;1102;115672;-68
2021/08/24 12:24:30;;;;;;;1.70;0.90;;;;;;;18.17;65.17;100536.53;257114;1101;114597;-70
2021/08/24 12:29:36;;;;;;;1.73;1.40;;;;;;;18.44;65.14;100531.73;256524;1096;115640;-68
2021/08/24 12:34:43;;;;;;;2.43;1.35;;;;;;;18.45;64.10;100538.75;257260;1101;115873;-68
2021/08/24 12:39:48;;;;;;;1.40;1.30;;;;;;;18.32;63.20;100544.68;257155;1101;115284;-69
2021/08/24 12:45:01;;;;;;;6.70;1.60;;;;;;;18.34;63.27;100547.92;254297;1101;115212;-70
2021/08/24 12:50:08;;;;;;;1.90;1.40;;;;;;;18.38;62.84;100548.18;254330;1101;115832;-70
2021/08/24 12:55:30;;;;;;;2.68;1.15;;;;;;;18.40;63.07;100537.93;254326;1102;115302;-69
2021/08/24 13:00:38;;;;;;;8.78;1.23;;;;;;;18.54;62.32;100532.84;254928;1103;115423;-68
2021/08/24 13:05:44;;;;;;;5.90;1.70;;;;;;;18.82;62.65;100537.75;254327;1101;116587;-69
2021/08/24 13:10:54;;;;;;;2.23;1.70;;;;;;;19.13;62.22;100520.45;254465;1101;116257;-66
2021/08/24 13:16:12;;;;;;;1.90;1.80;;;;;;;19.32;61.51;100522.58;254524;1101;119415;-70
2021/08/24 13:21:49;;;;;;;1.58;1.48;;;;;;;19.54;61.59;100527.72;254485;1096;115785;-69
2021/08/24 13:26:58;;;;;;;3.65;1.43;;;;;;;19.41;61.28;100537.98;254652;1101;115897;-66
2021/08/24 13:32:06;;;;;;;4.48;1.43;;;;;;;18.82;60.49;100535.86;254551;1101;115307;-68
2021/08/24 13:37:09;;;;;;;1.40;1.30;;;;;;;18.29;60.91;100542.52;255216;1101;115782;-66
2021/08/24 13:42:15;;;;;;;2.90;1.58;;;;;;;17.98;60.88;100548.88;254277;1103;117222;-67
2021/08/24 13:47:22;;;;;;;1.48;1.38;;;;;;;17.81;61.43;100543.66;254239;1102;116407;-68
2021/08/24 13:52:38;;;;;;;6.05;1.88;;;;;;;17.96;62.07;100543.75;254780;1103;116418;-65
2021/08/24 13:57:41;;;;;;;9.45;1.85;;;;;;;18.28;61.64;100546.28;254053;1104;115357;-69
2021/08/24 14:02:49;;;;;;;2.77;2.47;;;;;;;18.51;60.35;100550.38;254338;1101;116066;-68
2021/08/24 14:07:55;;;;;;;5.20;2.23;;;;;;;18.59;59.95;100535.55;254582;1101;115252;-68
2021/08/24 14:13:12;;;;;;;5.73;2.50;;;;;;;18.71;59.57;100531.53;255561;1102;114860;-68
2021/08/24 14:18:17;;;;;;;;;;;;;;;18.72;58.99;100535.04;254619;1102;115512;-68
2021/08/24 14:23:31;;;;;;;6.20;3.20;;;;;;;18.58;58.19;100540.14;257191;1101;105187;-68
2021/08/24 14:28:46;;;;;;;4.05;3.35;;;;;;;18.62;58.19;100537.75;254364;1102;115994;-70
2021/08/24 14:33:53;;;;;;;5.55;3.03;;;;;;;18.60;57.85;100539.91;257196;1101;117940;-70
2021/08/24 14:39:06;;;;;;;3.18;2.88;;;;;;;18.59;58.62;100539.06;257086;1103;116645;-69
2021/08/24 14:44:17;;;;;;;5.80;2.83;;;;;;;18.74;58.28;100538.28;257157;1101;115202;-69
2021/08/24 14:49:30;;;;;;;4.48;3.38;;;;;;;18.82;58.05;100543.97;257388;1104;116328;-70
2021/08/24 14:54:36;;;;;;;6.07;3.30;;;;;;;18.76;57.30;100553.14;254360;1104;115573;-70
2021/08/24 14:59:39;;;;;;;6.65;2.78;;;;;;;18.30;57.00;100562.22;254741;1104;116238;-69
2021/08/24 15:04:43;;;;;;;4.73;3.80;;;;;;;18.00;57.18;100565.62;254168;1104;116560;-67
2021/08/24 15:09:54;;;;;;;3.45;2.70;;;;;;;17.82;57.51;100561.47;255333;1104;116655;-69
2021/08/24 15:15:29;;;;;;;5.53;3.10;;;;;;;17.65;57.66;100561.67;254330;1103;116137;-70
2021/08/24 15:20:38;;;;;;;3.40;2.38;;;;;;;17.47;58.03;100565.55;254115;1103;115754;-68
2021/08/24 15:25:41;;;;;;;5.45;2.45;;;;;;;17.32;58.09;100567.35;255147;1104;115636;-69
2021/08/24 15:31:20;;;;;;;4.63;2.68;;;;;;;17.22;58.58;100568.08;254432;1104;116171;-69
2021/08/24 15:36:25;;;;;;;4.28;3.15;;;;;;;17.14;59.20;100577.45;254812;1098;115762;-69
2021/08/24 15:41:34;;;;;;;4.00;2.80;;;;;;;17.10;59.31;100579.05;254254;1101;115773;-70
2021/08/24 15:46:41;;;;;;;6.48;3.13;;;;;;;17.08;59.50;100577.69;254276;1101;115176;-69
2021/08/24 15:51:44;;;;;;;4.43;2.85;;;;;;;17.00;59.98;100578.96;254059;1101;115620;-70
2021/08/24 15:56:50;;;;;;;5.40;2.95;;;;;;;16.87;60.33;100582.06;255141;1101;116400;-69
2021/08/24 16:01:58;;;;;;;3.83;2.98;;;;;;;16.78;60.78;100580.92;255936;1101;115744;-69
2021/08/24 16:07:07;;;;;;;4.50;3.25;;;;;;;16.72;60.85;100590.02;254829;1102;115584;-69
2021/08/24 16:12:12;;;;;;;4.70;3.20;;;;;;;16.63;60.63;100578.03;254478;1104;114970;-68
2021/08/24 16:17:16;;;;;;;5.67;3.37;;;;;;;16.57;60.98;100584.42;257196;1101;116253;-70
2021/08/24 16:22:32;;;;;;;3.93;2.60;;;;;;;16.54;60.93;100582.23;256376;1104;115912;-69
2021/08/24 16:27:37;;;;;;;3.37;2.60;;;;;;;16.46;60.79;100576.27;257159;1101;115126;-69
2021/08/24 16:32:43;;;;;;;4.55;3.48;;;;;;;16.39;61.20;100572.95;256029;1102;116012;-69
2021/08/24 16:37:49;;;;;;;5.25;3.25;;;;;;;16.32;61.96;100575.02;257195;1103;114921;-69
2021/08/24 16:42:54;;;;;;;6.23;4.03;;;;;;;16.26;61.63;100581.40;256661;1101;115267;-69
2021/08/24 16:47:59;;;;;;;9.70;3.60;;;;;;;16.23;61.56;100584.59;257184;1103;115652;-69
2021/08/24 16:53:03;;;;;;;7.50;3.88;;;;;;;16.18;61.86;100589.13;256538;1101;114844;-69
2021/08/24 16:58:06;;;;;;;4.88;3.60;;;;;;;16.16;62.35;100589.38;254249;1096;116578;-70
2021/08/24 17:03:11;;;;;;;10.53;3.68;;;;;;;16.11;62.55;100583.92;254204;1103;115699;-69
2021/08/24 17:08:16;;;;;;;8.28;3.95;;;;;;;16.02;63.38;100590.80;254160;1104;117768;-65
2021/08/24 17:13:19;;;;;;;7.10;4.33;;;;;;;15.94;63.52;100588.53;254768;1104;116382;-65
2021/08/24 17:18:22;;;;;;;9.40;3.48;;;;;;;15.83;63.06;100595.67;254850;1097;115546;-67
2021/08/24 17:23:27;;;;;;;6.23;3.75;;;;;;;15.71;63.15;100594.95;254215;1104;115553;-67
2021/08/24 17:28:33;;;;;;;6.38;4.18;;;;;;;15.64;63.98;100595.12;254250;1096;116033;-67
2021/08/24 17:33:39;;;;;;;8.33;3.58;;;;;;;15.55;63.97;100596.59;254271;1102;116369;-67
2021/08/24 17:38:42;;;;;;;4.90;4.37;;;;;;;15.38;64.61;100595.77;254143;1101;114910;-67
2021/08/24 17:43:45;;;;;;;5.30;3.63;;;;;;;15.24;64.81;100599.86;254605;1104;116088;-67
2021/08/24 17:48:51;;;;;;;8.33;3.93;;;;;;;15.10;65.45;100594.80;254240;1103;115539;-68
2021/08/24 17:53:58;;;;;;;6.85;3.78;;;;;;;14.92;65.64;100597.72;254249;1102;114676;-65
2021/08/24 17:59:01;;;;;;;12.17;3.60;;;;;;;14.73;66.20;100598.97;254237;1101;115558;-68
2021/08/24 18:04:04;;;;;;;11.07;3.73;;;;;;;14.56;66.43;100601.63;255010;1102;115510;-69
2021/08/24 18:09:16;;;;;;;7.65;3.55;;;;;;;14.40;67.13;100603.16;255645;1102;118193;-68
2021/08/24 18:14:24;;;;;;;4.90;3.20;;;;;;;14.34;67.58;100601.45;255073;1101;115312;-69
2021/08/24 18:19:28;;;;;;;5.40;3.75;;;;;;;14.28;68.30;100607.77;254285;1104;116206;-69
2021/08/24 18:24:33;;;;;;;6.10;4.15;;;;;;;14.22;68.74;100603.34;254205;1104;116017;-68
2021/08/24 18:29:37;;;;;;;10.17;4.73;;;;;;;14.12;68.92;100608.48;254244;1103;116349;-68
2021/08/24 18:34:41;;;;;;;4.60;3.30;;;;;;;14.08;69.43;100607.33;254211;1104;116748;-68
2021/08/24 18:39:44;;;;;;;6.60;4.03;;;;;;;14.04;69.52;100606.20;254211;1104;116311;-68
2021/08/24 18:44:47;;;;;;;9.67;3.73;;;;;;;14.05;69.49;100607.83;255777;1104;115440;-66
2021/08/24 18:49:50;;;;;;;15.63;3.33;;;;;;;14.07;69.78;100609.20;255523;1104;116028;-65
2021/08/24 18:54:53;;;;;;;7.68;3.48;;;;;;;14.09;69.73;100604.41;255455;1104;115576;-65
2021/08/24 18:59:56;;;;;;;4.40;3.65;;;;;;;14.10;69.94;100605.23;255400;1096;116710;-67
2021/08/24 19:04:59;;;;;;;5.70;3.58;;;;;;;14.14;69.74;100601.03;255680;1104;115535;-67
2021/08/24 19:10:03;;;;;;;9.18;3.53;;;;;;;14.18;69.80;100607.55;255510;1104;115993;-65
2021/08/24 19:15:07;;;;;;;8.78;3.88;;;;;;;14.21;70.07;100603.58;254437;1102;116069;-68
2021/08/24 19:20:12;;;;;;;4.97;3.77;;;;;;;14.23;70.02;100615.70;254333;1101;116293;-70
2021/08/24 19:25:16;;;;;;;6.50;4.13;;;;;;;14.21;70.04;100607.08;255543;1101;116015;-65
2021/08/24 19:30:22;;;;;;;7.28;4.13;;;;;;;14.22;70.17;100614.07;254470;1101;115438;-64
2021/08/24 19:35:27;;;;;;;11.98;4.73;;;;;;;14.23;70.24;100620.25;254432;1101;116843;-69
2021/08/24 19:40:32;;;;;;;9.90;4.78;;;;;;;14.21;70.13;100616.98;254210;1102;116384;-69
2021/08/24 19:45:37;;;;;;;11.08;5.18;;;;;;;14.18;70.00;100618.27;254886;1101;115959;-67
2021/08/24 19:50:46;;;;;;;10.60;7.25;;;;;;;14.12;70.65;100613.85;254537;1101;116322;-69
2021/08/24 19:55:57;;;;;;;19.43;11.50;;;;;;;14.09;70.44;100617.00;254612;1101;116348;-69
2021/08/24 20:01:03;;;;;;;19.35;9.68;;;;;;;14.09;70.47;100619.69;254404;1097;173584;-69
2021/08/24 20:06:06;;;;;;;;;;;;;;;14.10;70.59;100615.95;255080;1101;117358;-65
2021/08/24 20:11:19;;;;;;;10.58;5.60;;;;;;;14.09;70.43;100615.14;256467;1104;104010;-65
2021/08/24 20:16:23;;;;;;;15.00;8.07;;;;;;;14.06;71.07;100615.61;255620;1104;115663;-65
2021/08/24 20:21:28;;;;;;;11.80;6.38;;;;;;;14.03;70.56;100617.97;254219;1104;115813;-67
2021/08/24 20:26:34;;;;;;;11.48;5.05;;;;;;;14.01;70.47;100618.20;255642;1101;118599;-67
2021/08/24 20:31:38;;;;;;;9.97;5.27;;;;;;;13.98;70.71;100612.50;255297;1096;115324;-68
2021/08/24 20:36:43;;;;;;;9.43;5.28;;;;;;;13.94;70.31;100619.38;254405;1102;115423;-67
2021/08/24 20:41:49;;;;;;;7.45;4.40;;;;;;;13.88;70.24;100613.08;255465;1101;115622;-67
2021/08/24 20:46:51;;;;;;;9.70;6.17;;;;;;;13.87;69.91;100614.13;257129;1103;116796;-66
2021/08/24 20:51:55;;;;;;;9.83;6.73;;;;;;;13.87;69.34;100608.77;256979;1104;115800;-67
2021/08/24 20:56:59;;;;;;;14.33;5.58;;;;;;;13.89;69.77;100617.39;255568;1104;115432;-69
2021/08/24 21:02:01;;;;;;;8.38;4.80;;;;;;;13.87;69.36;100622.17;254408;1101;116121;-68
2021/08/24 21:07:05;;;;;;;6.85;4.40;;;;;;;13.79;69.34;100609.94;254814;1102;115623;-69
2021/08/24 21:12:09;;;;;;;8.07;4.67;;;;;;;13.77;69.30;100617.39;254368;1097;116102;-67
2021/08/24 21:17:13;;;;;;;11.45;4.70;;;;;;;13.70;69.36;100610.55;254202;1101;115790;-66
2021/08/24 21:22:16;;;;;;;8.40;4.80;;;;;;;13.64;69.15;100614.16;254692;1102;115629;-68
2021/08/24 21:27:20;;;;;;;6.33;4.30;;;;;;;13.57;69.22;100616.94;254321;1101;115036;-69
2021/08/24 21:32:24;;;;;;;8.85;5.55;;;;;;;13.53;68.82;100612.28;254486;1101;116070;-68
2021/08/24 21:37:28;;;;;;;8.83;4.97;;;;;;;13.48;68.89;100619.14;254225;1103;115366;-67
2021/08/24 21:42:32;;;;;;;10.00;4.15;;;;;;;13.40;68.49;100616.02;254218;1099;115383;-69
2021/08/24 21:47:39;;;;;;;17.90;4.70;;;;;;;13.32;69.07;100611.80;254269;1097;116920;-68
2021/08/24 21:52:44;;;;;;;9.03;5.48;;;;;;;13.22;68.38;100611.55;254803;1104;115710;-67
2021/08/24 21:57:47;;;;;;;9.75;6.23;;;;;;;13.11;68.36;100606.98;254181;1102;117363;-69
2021/08/24 22:02:51;;;;;;;15.80;5.00;;;;;;;13.01;68.87;100612.89;255188;1101;115256;-68
2021/08/24 22:07:56;;;;;;;11.90;6.93;;;;;;;12.97;68.88;100610.89;255250;1101;116109;-67
2021/08/24 22:13:00;;;;;;;6.90;4.90;;;;;;;12.91;68.50;100606.45;255005;1101;115931;-67
2021/08/24 22:18:03;;;;;;;8.65;5.45;;;;;;;12.78;68.35;100592.23;254404;1101;116069;-66
2021/08/24 22:23:08;;;;;;;13.75;5.55;;;;;;;12.67;68.50;100589.52;254289;1101;115197;-69
2021/08/24 22:28:26;;;;;;;8.88;4.10;;;;;;;12.55;68.79;100593.99;254318;1101;115511;-68
2021/08/24 22:33:39;;;;;;;10.73;6.28;;;;;;;12.45;68.85;100598.05;255734;1102;115171;-68
2021/08/24 22:38:45;;;;;;;13.58;6.63;;;;;;;12.38;68.76;100588.47;256038;1101;115283;-66
2021/08/24 22:43:49;;;;;;;12.54;5.44;;;;;;;12.27;69.08;100586.55;254324;1102;115668;-68
2021/08/24 22:48:53;;;;;;;8.75;4.63;;;;;;;12.15;69.32;100573.14;254482;1101;115859;-69
2021/08/24 22:53:57;;;;;;;13.88;6.78;;;;;;;12.07;69.09;100573.44;254493;1101;115406;-69
2021/08/24 22:59:00;;;;;;;16.58;6.48;;;;;;;11.96;69.41;100566.97;254322;1097;115576;-66
2021/08/24 23:04:03;;;;;;;10.83;6.25;;;;;;;11.90;69.63;100562.55;256426;1102;115392;-69
2021/08/24 23:09:06;;;;;;;11.63;5.47;;;;;;;11.78;69.87;100562.46;257219;1101;115147;-69
2021/08/24 23:14:10;;;;;;;9.70;5.40;;;;;;;11.70;69.80;100568.05;256912;1102;116152;-68
2021/08/24 23:19:13;;;;;;;11.63;5.20;;;;;;;11.64;70.06;100557.44;255960;1102;115500;-64